CheckWX is a tool to help pilots better visualize weather data.  It is not intended as a substitute for an official pre-flight weather briefing.

23:54:52 UTC

KVIS TAF
Visalia Municipal Airport
Visalia, California, USA
KVIS 242320Z 2500/2524 VRB03KT P6SM SKC TEMPO 2513/2517 3SM BR

Feb-25@
00:00 UTC

Feb-25 @ 00:00 UTC

Feb-26@
00:00 UTC

Feb-26 @ 00:00 UTC

KVIS 242320Z 2500/2524 VRB03KT P6SM SKC
Wind
  • Variable at 3 KTS
Cloud Levels
  • Clear skies

Feb-25@
13:00 UTC

Feb-25 @ 13:00 UTC

Feb-25@
17:00 UTC

Feb-25 @ 17:00 UTC

TEMPO 2513/2517 3SM BR

Temporary

Temporary Changes expected for less than half the time period

Conditions
Mist